Bonpland, Argentina
Current Conditions -  °F | °C
As of 1:00 PM on Tuesday 21 Oct 2014 (Local Time) from SARL Reporting Station
Clear Clear  
Wind Chill: 25°   Ceiling: Unl
Heat Index: 26°   Visibility: 6mi
Dew Point: 14°   Wind: 6mph
Humidity: 50%   Direction: 90°E
Pressure: 30.12"   Gusts: NA
Location:  29.82°S, 57.43°W
Report Text: SARL 211600Z 09005KT CAVOK 25/14 Q1020
Loading
Personal Weather Stations






























Interactive Weather Map
Tropical Storm Tracking
New forecast layout! Learn more

10-Day Weather Forecast

Advertisements
Track Severe Weather on mobile